Tomahawk Bluff, Illinois
Current Conditions -  °F | °C
As of 4:15 PM on Tuesday 21 Oct 2014 (Local Time) from KVYS Reporting Station
Scattered Clouds Scattered Clouds  
Wind Chill: 57°   Ceiling: Unl
Heat Index: 57°   Visibility: 10mi
Dew Point: 38°   Wind: 10mph
Humidity: 49%   Direction: 60°ENE
Pressure: 30.18"   Gusts: 16mph
Location:  41.3955°N, 89.0957°W
Report Text: KVYS 212115Z AUTO 06009G14KT 10SM SCT043 14/03 A3018 RMK AO2 T01370032
Loading
Personal Weather Stations






























Interactive Weather Map
Tropical Storm Tracking
New forecast layout! Learn more

10-Day Weather Forecast

Advertisements
Track Severe Weather on mobile